createdAt,value
2022-09-09T00:03:25.118Z,15.01
2022-09-09T00:08:24.982Z,15.06
2022-09-09T00:13:24.761Z,15.07
2022-09-09T00:18:24.713Z,15.11
2022-09-09T00:23:24.667Z,15.09
2022-09-09T00:28:24.729Z,15.03
2022-09-09T00:33:29.178Z,14.89
2022-09-09T00:38:24.684Z,14.83
2022-09-09T00:43:25.568Z,14.86
2022-09-09T00:48:24.474Z,14.84
2022-09-09T00:53:24.353Z,14.75
2022-09-09T00:58:24.234Z,14.62
2022-09-09T01:03:24.195Z,14.64
2022-09-09T01:08:32.062Z,14.70
2022-09-09T01:13:24.164Z,14.65
2022-09-09T01:18:24.159Z,14.68
2022-09-09T01:23:23.985Z,14.64
2022-09-09T01:28:24.116Z,14.65
2022-09-09T01:33:23.886Z,14.69
2022-09-09T01:38:23.836Z,14.75
2022-09-09T01:43:23.762Z,14.78
2022-09-09T01:48:27.136Z,14.73
2022-09-09T01:53:23.819Z,14.73
2022-09-09T01:58:23.751Z,14.70
2022-09-09T02:03:23.696Z,14.72
2022-09-09T02:08:23.567Z,14.75
2022-09-09T02:13:23.455Z,14.72
2022-09-09T02:18:23.372Z,14.77
2022-09-09T02:23:23.411Z,14.86
2022-09-09T02:28:23.396Z,14.94
2022-09-09T02:33:23.342Z,14.95
2022-09-09T02:38:23.285Z,15.01
2022-09-09T02:43:25.261Z,15.07
2022-09-09T02:48:23.250Z,15.09
2022-09-09T02:53:23.026Z,15.13
2022-09-09T02:58:22.962Z,15.16
2022-09-09T03:03:32.781Z,15.17
2022-09-09T03:08:22.905Z,15.14
2022-09-09T03:13:22.851Z,15.11
2022-09-09T03:18:22.795Z,15.10
2022-09-09T03:23:22.720Z,15.01
2022-09-09T03:28:22.642Z,15.02
2022-09-09T03:33:22.690Z,14.98
2022-09-09T03:38:22.601Z,14.92
2022-09-09T03:43:22.482Z,14.95
2022-09-09T03:48:22.393Z,14.98
2022-09-09T03:53:22.361Z,14.98
2022-09-09T03:58:22.298Z,15.01
2022-09-09T04:03:25.910Z,14.99
2022-09-09T04:08:23.243Z,15.01
2022-09-09T04:13:22.203Z,15.01
2022-09-09T04:18:30.999Z,15.03
2022-09-09T04:23:22.045Z,15.02
2022-09-09T04:28:22.038Z,14.96
2022-09-09T04:33:21.997Z,14.91
2022-09-09T04:38:21.856Z,14.86
2022-09-09T04:43:21.836Z,14.84
2022-09-09T04:48:21.754Z,14.89
2022-09-09T04:53:21.714Z,14.88
2022-09-09T04:58:21.756Z,14.92
2022-09-09T05:03:21.706Z,14.92
2022-09-09T05:08:21.536Z,14.94
2022-09-09T05:13:21.648Z,14.98
2022-09-09T05:18:21.619Z,14.99
2022-09-09T05:23:21.513Z,14.94
2022-09-09T05:28:21.311Z,15.01
2022-09-09T05:33:21.275Z,15.06
2022-09-09T05:38:23.755Z,15.14
2022-09-09T05:43:21.153Z,15.20
2022-09-09T05:48:21.228Z,15.27
2022-09-09T05:53:21.114Z,15.27
2022-09-09T05:58:21.124Z,15.34
2022-09-09T06:03:30.998Z,15.43
2022-09-09T06:08:20.875Z,15.46
2022-09-09T06:13:32.791Z,15.59
2022-09-09T06:18:20.774Z,15.75
2022-09-09T06:23:20.709Z,15.83
2022-09-09T06:28:20.665Z,15.89
2022-09-09T06:33:20.601Z,16.01
2022-09-09T06:38:20.663Z,16.05
2022-09-09T06:43:20.508Z,16.20
2022-09-09T06:48:20.458Z,16.28
2022-09-09T06:53:20.404Z,16.49
2022-09-09T06:58:20.455Z,16.86
2022-09-09T07:03:21.332Z,16.82
2022-09-09T07:08:20.228Z,16.83
2022-09-09T07:13:20.653Z,16.83
2022-09-09T07:18:20.116Z,16.83
2022-09-09T07:23:20.069Z,16.93
2022-09-09T07:28:20.033Z,17.37
2022-09-09T07:33:20.081Z,17.66
2022-09-09T07:38:19.992Z,17.75
2022-09-09T07:43:19.868Z,17.46
2022-09-09T07:48:19.796Z,17.34
2022-09-09T07:53:19.758Z,17.34
2022-09-09T07:58:19.752Z,17.31
2022-09-09T08:03:20.276Z,17.40
2022-09-09T08:08:19.604Z,17.58
2022-09-09T08:13:19.565Z,17.93
2022-09-09T08:18:19.576Z,18.65
2022-09-09T08:23:19.882Z,18.95
2022-09-09T08:28:19.461Z,19.06
2022-09-09T08:33:19.553Z,19.16
2022-09-09T08:38:20.367Z,19.91
2022-09-09T08:43:19.885Z,19.94
2022-09-09T08:48:19.300Z,20.24
2022-09-09T08:53:19.267Z,20.74
2022-09-09T08:58:19.148Z,20.33
2022-09-09T09:03:19.160Z,19.73
2022-09-09T09:08:19.082Z,19.40
2022-09-09T09:13:18.963Z,19.02
2022-09-09T09:18:18.913Z,19.04
2022-09-09T09:23:18.847Z,19.29
2022-09-09T09:28:18.824Z,19.81
2022-09-09T09:33:19.295Z,19.94
2022-09-09T09:43:19.624Z,19.74
2022-09-09T09:48:18.646Z,19.94
2022-09-09T09:53:18.465Z,20.08
2022-09-09T09:58:18.901Z,19.91
2022-09-09T10:03:18.364Z,19.63
2022-09-09T10:08:18.418Z,19.41
2022-09-09T10:13:18.487Z,19.46
2022-09-09T10:18:18.304Z,19.91
2022-09-09T10:23:18.208Z,19.86
2022-09-09T10:28:18.142Z,20.42
2022-09-09T10:33:18.173Z,20.91
2022-09-09T10:38:19.236Z,21.21
2022-09-09T10:43:18.962Z,21.61
2022-09-09T10:48:17.977Z,21.49
2022-09-09T10:53:17.857Z,21.09
2022-09-09T10:58:17.768Z,20.80
2022-09-09T11:03:17.852Z,20.94
2022-09-09T11:08:18.900Z,20.84
2022-09-09T11:13:17.600Z,20.98
2022-09-09T11:18:19.711Z,21.03
2022-09-09T11:23:17.561Z,20.98
2022-09-09T11:28:17.509Z,20.84
2022-09-09T11:33:17.618Z,20.87
2022-09-09T11:38:17.392Z,20.67
2022-09-09T11:43:17.399Z,20.38
2022-09-09T11:48:17.356Z,20.21
2022-09-09T11:53:17.184Z,20.31
2022-09-09T11:58:17.189Z,20.14
2022-09-09T12:03:17.205Z,19.83
2022-09-09T12:08:17.157Z,19.37
2022-09-09T12:13:17.411Z,19.04
2022-09-09T12:18:17.050Z,19.77
2022-09-09T12:23:16.850Z,19.66
2022-09-09T12:28:16.862Z,19.44
2022-09-09T12:33:16.739Z,19.51
2022-09-09T12:38:16.819Z,19.31
2022-09-09T12:43:20.215Z,19.51
2022-09-09T12:48:18.312Z,19.37
2022-09-09T12:53:16.524Z,19.62
2022-09-09T12:58:16.498Z,19.76
2022-09-09T13:03:16.403Z,19.94
2022-09-09T13:08:16.355Z,19.95
2022-09-09T13:13:16.308Z,20.08
2022-09-09T13:18:16.314Z,20.21
2022-09-09T13:23:16.265Z,20.08
2022-09-09T13:28:16.267Z,19.74
2022-09-09T13:33:16.109Z,19.37
2022-09-09T13:38:16.040Z,18.76
2022-09-09T13:43:15.979Z,18.29
2022-09-09T13:48:16.119Z,18.60
2022-09-09T13:53:15.878Z,18.98
2022-09-09T13:58:19.149Z,19.06
2022-09-09T14:03:15.783Z,19.06
2022-09-09T14:08:15.708Z,19.25
2022-09-09T14:13:15.665Z,19.29
2022-09-09T14:18:15.640Z,19.40
2022-09-09T14:23:15.565Z,19.56
2022-09-09T14:28:15.572Z,19.59
2022-09-09T14:33:15.514Z,19.23
2022-09-09T14:38:19.059Z,18.85
2022-09-09T14:43:15.408Z,18.72
2022-09-09T14:48:15.288Z,18.95
2022-09-09T14:53:15.235Z,19.02
2022-09-09T14:58:15.178Z,18.90
2022-09-09T15:03:15.165Z,18.90
2022-09-09T15:08:23.977Z,18.58
2022-09-09T15:13:15.010Z,18.00
2022-09-09T15:18:15.089Z,17.78
2022-09-09T15:23:15.763Z,17.28
2022-09-09T15:28:15.665Z,16.63
2022-09-09T15:33:16.294Z,16.20
2022-09-09T15:44:26.359Z,16.17
2022-09-09T15:49:26.901Z,16.12
2022-09-09T15:54:26.291Z,16.20
2022-09-09T15:59:34.453Z,16.30
2022-09-09T16:04:28.475Z,16.50
2022-09-09T16:09:26.406Z,16.58
2022-09-09T16:14:26.572Z,16.61
2022-09-09T16:19:26.940Z,16.63
2022-09-09T16:24:40.448Z,16.64
2022-09-09T16:29:25.946Z,16.56
2022-09-09T16:34:27.792Z,16.27
2022-09-09T16:39:25.651Z,16.15
2022-09-09T16:44:25.633Z,16.24
2022-09-09T16:49:25.650Z,16.48
2022-09-09T16:54:26.580Z,16.61
2022-09-09T16:59:25.433Z,16.53
2022-09-09T17:04:25.591Z,16.39
2022-09-09T17:09:25.432Z,16.39
2022-09-09T17:14:25.316Z,16.45
2022-09-09T17:19:25.215Z,16.46
2022-09-09T17:24:25.162Z,16.50
2022-09-09T17:29:25.099Z,16.60
2022-09-09T17:34:25.085Z,16.60
2022-09-09T17:39:25.102Z,16.60
2022-09-09T17:44:24.993Z,16.53
2022-09-09T17:49:25.382Z,16.48
2022-09-09T17:54:24.893Z,16.42
2022-09-09T17:59:25.731Z,16.39
2022-09-09T18:04:24.777Z,16.38
2022-09-09T18:09:24.923Z,16.35
2022-09-09T18:14:26.773Z,16.28
2022-09-09T18:19:36.231Z,16.15
2022-09-09T18:24:34.502Z,16.08
2022-09-09T18:29:24.468Z,16.04
2022-09-09T18:34:24.383Z,16.15
2022-09-09T18:39:25.012Z,16.14
2022-09-09T18:44:25.364Z,16.21
2022-09-09T18:49:25.903Z,16.15
2022-09-09T18:54:28.258Z,16.15
2022-09-09T18:59:24.710Z,16.12
2022-09-09T19:04:24.077Z,16.09
2022-09-09T19:09:24.076Z,16.11
2022-09-09T19:14:23.992Z,16.08
2022-09-09T19:19:23.887Z,16.09
2022-09-09T19:24:23.918Z,16.11
2022-09-09T19:29:25.971Z,16.04
2022-09-09T19:34:23.742Z,16.01
2022-09-09T19:39:23.597Z,16.00
2022-09-09T19:44:23.604Z,16.00
2022-09-09T19:49:23.539Z,16.01
2022-09-09T19:54:23.544Z,15.97
2022-09-09T19:59:23.460Z,16.01
2022-09-09T20:04:23.416Z,15.96
2022-09-09T20:09:23.329Z,15.90
2022-09-09T20:14:23.255Z,15.92
2022-09-09T20:19:23.192Z,15.89
2022-09-09T20:24:23.221Z,15.92
2022-09-09T20:29:23.151Z,15.90
2022-09-09T20:34:23.114Z,15.93
2022-09-09T20:39:23.000Z,15.96
2022-09-09T20:44:22.931Z,16.00
2022-09-09T20:49:22.877Z,16.01
2022-09-09T20:54:22.847Z,16.05
2022-09-09T20:59:22.781Z,15.97
2022-09-09T21:04:22.828Z,15.96
2022-09-09T21:09:22.761Z,15.96
2022-09-09T21:14:22.671Z,15.94
2022-09-09T21:19:31.459Z,16.04
2022-09-09T21:24:22.448Z,16.02
2022-09-09T21:29:22.457Z,15.94
2022-09-09T21:34:22.325Z,15.96
2022-09-09T21:39:23.313Z,15.93
2022-09-09T21:44:22.267Z,15.94
2022-09-09T21:49:22.215Z,15.92
2022-09-09T21:54:22.144Z,15.93
2022-09-09T21:59:22.079Z,15.84
2022-09-09T22:04:22.037Z,15.71
2022-09-09T22:09:21.935Z,15.68
2022-09-09T22:14:21.884Z,15.59
2022-09-09T22:19:21.868Z,15.47
2022-09-09T22:24:21.896Z,15.43
2022-09-09T22:29:21.838Z,15.36
2022-09-09T22:34:21.763Z,15.34
2022-09-09T22:39:21.727Z,15.29
2022-09-09T22:44:21.551Z,15.20
2022-09-09T22:49:21.503Z,15.17
2022-09-09T22:54:21.547Z,15.11
2022-09-09T22:59:21.402Z,15.11
2022-09-09T23:04:21.402Z,15.09
2022-09-09T23:09:21.281Z,15.10
2022-09-09T23:14:21.222Z,15.16
2022-09-09T23:19:21.162Z,15.17
2022-09-09T23:24:21.175Z,15.21
2022-09-09T23:29:21.117Z,15.29
2022-09-09T23:34:21.136Z,15.27
2022-09-09T23:39:20.982Z,15.34
2022-09-09T23:44:20.901Z,15.36
2022-09-09T23:49:20.844Z,15.36
2022-09-09T23:54:20.773Z,15.38
2022-09-09T23:59:20.740Z,15.38
